Terminal Aerodrome Forecast
Issued by NWS

Current Version | Previous Version | Text Only | Print | Product List | Glossary On
Versions: 1 2 3 4 5 6 7 8 9 10 11 12 13
000
FTUS45 KTFX 302327
TAFGTF
TAF
KGTF 302327Z 0100/0124 08008KT P6SM SCT060 OVC090
     FM010300 VRB06KT P6SM SCT080
     FM011500 08007KT P6SM SKC=

USA.gov is the U.S. government's official web portal to all federal, state and local government web resources and services.